sensor_id;sensor_type;location;lat;lon;timestamp;P1;durP1;ratioP1;P2;durP2;ratioP2
68593;SDS011;55563;52.416;13.548;2023-09-08T00:01:14;5.25;;;3.60;;
68593;SDS011;55563;52.416;13.548;2023-09-08T00:03:15;5.38;;;3.10;;
68593;SDS011;55563;52.416;13.548;2023-09-08T00:07:16;4.70;;;3.40;;
68593;SDS011;55563;52.416;13.548;2023-09-08T00:09:17;5.45;;;3.88;;
68593;SDS011;55563;52.416;13.548;2023-09-08T00:11:17;5.18;;;3.55;;
68593;SDS011;55563;52.416;13.548;2023-09-08T00:13:18;4.68;;;3.55;;
68593;SDS011;55563;52.416;13.548;2023-09-08T00:15:19;4.90;;;3.50;;
68593;SDS011;55563;52.416;13.548;2023-09-08T00:17:20;6.35;;;3.85;;
68593;SDS011;55563;52.416;13.548;2023-09-08T00:19:21;5.20;;;3.67;;
68593;SDS011;55563;52.416;13.548;2023-09-08T00:23:22;5.28;;;3.92;;
68593;SDS011;55563;52.416;13.548;2023-09-08T00:25:23;6.45;;;3.90;;
68593;SDS011;55563;52.416;13.548;2023-09-08T00:27:23;5.57;;;3.70;;
68593;SDS011;55563;52.416;13.548;2023-09-08T00:29:24;6.78;;;3.70;;
68593;SDS011;55563;52.416;13.548;2023-09-08T00:31:25;5.20;;;4.13;;
68593;SDS011;55563;52.416;13.548;2023-09-08T00:35:26;5.97;;;3.58;;
68593;SDS011;55563;52.416;13.548;2023-09-08T00:37:27;4.75;;;3.30;;
68593;SDS011;55563;52.416;13.548;2023-09-08T00:39:28;5.95;;;4.22;;
68593;SDS011;55563;52.416;13.548;2023-09-08T00:41:28;5.90;;;4.03;;
68593;SDS011;55563;52.416;13.548;2023-09-08T00:43:29;5.50;;;3.75;;
68593;SDS011;55563;52.416;13.548;2023-09-08T00:45:29;5.30;;;3.80;;
68593;SDS011;55563;52.416;13.548;2023-09-08T00:47:31;4.75;;;3.67;;
68593;SDS011;55563;52.416;13.548;2023-09-08T00:49:31;4.65;;;3.75;;
68593;SDS011;55563;52.416;13.548;2023-09-08T00:51:32;5.95;;;3.70;;
68593;SDS011;55563;52.416;13.548;2023-09-08T00:55:34;5.10;;;3.63;;
68593;SDS011;55563;52.416;13.548;2023-09-08T00:59:35;7.25;;;4.00;;
68593;SDS011;55563;52.416;13.548;2023-09-08T01:01:36;5.13;;;3.65;;
68593;SDS011;55563;52.416;13.548;2023-09-08T01:03:37;6.03;;;3.90;;
68593;SDS011;55563;52.416;13.548;2023-09-08T01:05:38;5.30;;;3.90;;
68593;SDS011;55563;52.416;13.548;2023-09-08T01:07:39;5.63;;;3.78;;
68593;SDS011;55563;52.416;13.548;2023-09-08T01:09:40;4.78;;;3.90;;
68593;SDS011;55563;52.416;13.548;2023-09-08T01:11:42;4.68;;;3.53;;
68593;SDS011;55563;52.416;13.548;2023-09-08T01:13:43;5.32;;;3.80;;
68593;SDS011;55563;52.416;13.548;2023-09-08T01:15:43;5.65;;;3.70;;
68593;SDS011;55563;52.416;13.548;2023-09-08T01:17:44;6.60;;;4.20;;
68593;SDS011;55563;52.416;13.548;2023-09-08T01:19:45;5.47;;;3.90;;
68593;SDS011;55563;52.416;13.548;2023-09-08T01:27:07;4.38;;;3.30;;
68593;SDS011;55563;52.416;13.548;2023-09-08T01:29:10;5.20;;;3.72;;
68593;SDS011;55563;52.416;13.548;2023-09-08T01:31:12;6.10;;;4.25;;
68593;SDS011;55563;52.416;13.548;2023-09-08T01:33:13;5.65;;;3.70;;
68593;SDS011;55563;52.416;13.548;2023-09-08T01:35:14;6.22;;;3.97;;
68593;SDS011;55563;52.416;13.548;2023-09-08T01:37:15;6.18;;;4.20;;
68593;SDS011;55563;52.416;13.548;2023-09-08T01:39:16;6.38;;;4.05;;
68593;SDS011;55563;52.416;13.548;2023-09-08T01:41:17;5.35;;;3.75;;
68593;SDS011;55563;52.416;13.548;2023-09-08T01:43:17;5.18;;;3.88;;
68593;SDS011;55563;52.416;13.548;2023-09-08T01:45:19;5.88;;;3.92;;
68593;SDS011;55563;52.416;13.548;2023-09-08T01:47:20;5.93;;;4.20;;
68593;SDS011;55563;52.416;13.548;2023-09-08T01:49:20;4.93;;;3.95;;
68593;SDS011;55563;52.416;13.548;2023-09-08T01:51:21;6.90;;;4.10;;
68593;SDS011;55563;52.416;13.548;2023-09-08T01:53:21;5.60;;;3.80;;
68593;SDS011;55563;52.416;13.548;2023-09-08T01:55:22;5.93;;;4.13;;
68593;SDS011;55563;52.416;13.548;2023-09-08T01:57:23;4.38;;;3.53;;
68593;SDS011;55563;52.416;13.548;2023-09-08T01:59:24;5.72;;;4.20;;
68593;SDS011;55563;52.416;13.548;2023-09-08T02:01:25;5.40;;;4.25;;
68593;SDS011;55563;52.416;13.548;2023-09-08T02:03:25;5.70;;;4.20;;
68593;SDS011;55563;52.416;13.548;2023-09-08T02:05:26;6.15;;;3.83;;
68593;SDS011;55563;52.416;13.548;2023-09-08T02:07:27;6.97;;;4.38;;
68593;SDS011;55563;52.416;13.548;2023-09-08T02:09:31;5.30;;;3.92;;
68593;SDS011;55563;52.416;13.548;2023-09-08T02:11:34;5.60;;;4.25;;
68593;SDS011;55563;52.416;13.548;2023-09-08T02:13:36;6.70;;;3.90;;
68593;SDS011;55563;52.416;13.548;2023-09-08T02:15:37;5.35;;;3.97;;
68593;SDS011;55563;52.416;13.548;2023-09-08T02:17:38;5.10;;;3.95;;
68593;SDS011;55563;52.416;13.548;2023-09-08T02:19:38;5.47;;;4.00;;
68593;SDS011;55563;52.416;13.548;2023-09-08T02:21:39;5.43;;;4.20;;
68593;SDS011;55563;52.416;13.548;2023-09-08T02:23:40;5.60;;;4.00;;
68593;SDS011;55563;52.416;13.548;2023-09-08T02:25:41;5.05;;;3.88;;
68593;SDS011;55563;52.416;13.548;2023-09-08T02:27:42;5.45;;;4.20;;
68593;SDS011;55563;52.416;13.548;2023-09-08T02:31:43;6.28;;;4.03;;
68593;SDS011;55563;52.416;13.548;2023-09-08T02:33:45;5.28;;;3.90;;
68593;SDS011;55563;52.416;13.548;2023-09-08T02:35:46;4.78;;;3.70;;
68593;SDS011;55563;52.416;13.548;2023-09-08T02:37:46;5.25;;;3.80;;
68593;SDS011;55563;52.416;13.548;2023-09-08T02:39:48;5.57;;;3.90;;
68593;SDS011;55563;52.416;13.548;2023-09-08T02:41:48;4.90;;;3.80;;
68593;SDS011;55563;52.416;13.548;2023-09-08T02:43:49;6.28;;;4.18;;
68593;SDS011;55563;52.416;13.548;2023-09-08T02:45:51;5.53;;;4.38;;
68593;SDS011;55563;52.416;13.548;2023-09-08T02:47:52;5.30;;;4.07;;
68593;SDS011;55563;52.416;13.548;2023-09-08T02:49:53;5.75;;;3.95;;
68593;SDS011;55563;52.416;13.548;2023-09-08T02:51:53;5.40;;;4.10;;
68593;SDS011;55563;52.416;13.548;2023-09-08T02:53:54;5.68;;;4.13;;
68593;SDS011;55563;52.416;13.548;2023-09-08T02:55:55;5.35;;;4.05;;
68593;SDS011;55563;52.416;13.548;2023-09-08T02:57:56;6.47;;;4.45;;
68593;SDS011;55563;52.416;13.548;2023-09-08T02:59:57;5.45;;;4.00;;
68593;SDS011;55563;52.416;13.548;2023-09-08T03:01:59;6.28;;;4.10;;
68593;SDS011;55563;52.416;13.548;2023-09-08T03:04:00;6.13;;;4.55;;
68593;SDS011;55563;52.416;13.548;2023-09-08T03:06:01;5.45;;;3.92;;
68593;SDS011;55563;52.416;13.548;2023-09-08T03:08:04;6.25;;;4.65;;
68593;SDS011;55563;52.416;13.548;2023-09-08T03:10:06;5.68;;;4.15;;
68593;SDS011;55563;52.416;13.548;2023-09-08T03:14:09;5.50;;;4.05;;
68593;SDS011;55563;52.416;13.548;2023-09-08T03:16:09;5.90;;;4.07;;
68593;SDS011;55563;52.416;13.548;2023-09-08T03:18:11;5.55;;;4.05;;
68593;SDS011;55563;52.416;13.548;2023-09-08T03:20:11;5.22;;;4.00;;
68593;SDS011;55563;52.416;13.548;2023-09-08T03:22:13;5.93;;;4.32;;
68593;SDS011;55563;52.416;13.548;2023-09-08T03:24:14;5.35;;;4.13;;
68593;SDS011;55563;52.416;13.548;2023-09-08T03:26:15;6.55;;;4.18;;
68593;SDS011;55563;52.416;13.548;2023-09-08T03:28:16;5.25;;;4.07;;
68593;SDS011;55563;52.416;13.548;2023-09-08T03:32:18;5.00;;;3.90;;
68593;SDS011;55563;52.416;13.548;2023-09-08T03:34:18;5.28;;;4.10;;
68593;SDS011;55563;52.416;13.548;2023-09-08T03:36:21;5.45;;;3.92;;
68593;SDS011;55563;52.416;13.548;2023-09-08T03:38:22;7.05;;;4.32;;
68593;SDS011;55563;52.416;13.548;2023-09-08T03:40:24;7.72;;;4.65;;
68593;SDS011;55563;52.416;13.548;2023-09-08T03:42:24;5.60;;;4.18;;
68593;SDS011;55563;52.416;13.548;2023-09-08T03:44:25;5.75;;;4.50;;
68593;SDS011;55563;52.416;13.548;2023-09-08T03:46:27;5.35;;;4.28;;
68593;SDS011;55563;52.416;13.548;2023-09-08T03:48:27;6.60;;;4.60;;
68593;SDS011;55563;52.416;13.548;2023-09-08T03:50:28;5.40;;;4.05;;
68593;SDS011;55563;52.416;13.548;2023-09-08T03:52:31;5.70;;;4.15;;
68593;SDS011;55563;52.416;13.548;2023-09-08T03:54:32;5.60;;;4.18;;
68593;SDS011;55563;52.416;13.548;2023-09-08T03:56:33;6.30;;;4.43;;
68593;SDS011;55563;52.416;13.548;2023-09-08T03:58:33;6.38;;;4.35;;
68593;SDS011;55563;52.416;13.548;2023-09-08T04:00:34;6.22;;;4.32;;
68593;SDS011;55563;52.416;13.548;2023-09-08T04:02:36;5.72;;;4.22;;
68593;SDS011;55563;52.416;13.548;2023-09-08T04:06:37;5.50;;;4.10;;
68593;SDS011;55563;52.416;13.548;2023-09-08T04:10:39;6.32;;;4.43;;
68593;SDS011;55563;52.416;13.548;2023-09-08T04:12:40;6.30;;;4.45;;
68593;SDS011;55563;52.416;13.548;2023-09-08T04:14:41;6.55;;;4.75;;
68593;SDS011;55563;52.416;13.548;2023-09-08T04:16:42;7.13;;;4.43;;
68593;SDS011;55563;52.416;13.548;2023-09-08T04:18:43;6.65;;;4.60;;
68593;SDS011;55563;52.416;13.548;2023-09-08T04:20:44;6.20;;;4.53;;
68593;SDS011;55563;52.416;13.548;2023-09-08T04:22:45;5.95;;;4.38;;
68593;SDS011;55563;52.416;13.548;2023-09-08T04:24:46;6.10;;;4.53;;
68593;SDS011;55563;52.416;13.548;2023-09-08T04:26:47;6.18;;;4.43;;
68593;SDS011;55563;52.416;13.548;2023-09-08T04:28:47;6.10;;;4.40;;
68593;SDS011;55563;52.416;13.548;2023-09-08T04:30:49;6.32;;;4.63;;
68593;SDS011;55563;52.416;13.548;2023-09-08T04:32:49;6.43;;;4.50;;
68593;SDS011;55563;52.416;13.548;2023-09-08T04:34:50;6.00;;;4.53;;
68593;SDS011;55563;52.416;13.548;2023-09-08T04:36:51;7.40;;;4.88;;
68593;SDS011;55563;52.416;13.548;2023-09-08T04:38:52;8.43;;;4.95;;
68593;SDS011;55563;52.416;13.548;2023-09-08T04:40:53;40.28;;;8.63;;
68593;SDS011;55563;52.416;13.548;2023-09-08T04:42:53;35.17;;;8.50;;
68593;SDS011;55563;52.416;13.548;2023-09-08T04:44:54;14.85;;;5.30;;
68593;SDS011;55563;52.416;13.548;2023-09-08T04:46:55;14.63;;;5.90;;
68593;SDS011;55563;52.416;13.548;2023-09-08T04:48:56;10.38;;;5.18;;
68593;SDS011;55563;52.416;13.548;2023-09-08T04:50:58;15.30;;;5.53;;
68593;SDS011;55563;52.416;13.548;2023-09-08T04:52:59;10.18;;;5.30;;
68593;SDS011;55563;52.416;13.548;2023-09-08T04:55:00;8.68;;;5.28;;
68593;SDS011;55563;52.416;13.548;2023-09-08T04:59:03;7.95;;;5.05;;
68593;SDS011;55563;52.416;13.548;2023-09-08T05:03:05;6.40;;;4.45;;
68593;SDS011;55563;52.416;13.548;2023-09-08T05:05:06;9.30;;;4.93;;
68593;SDS011;55563;52.416;13.548;2023-09-08T05:07:08;6.95;;;4.88;;
68593;SDS011;55563;52.416;13.548;2023-09-08T05:09:08;6.65;;;4.90;;
68593;SDS011;55563;52.416;13.548;2023-09-08T05:11:09;7.28;;;5.05;;
68593;SDS011;55563;52.416;13.548;2023-09-08T05:15:11;8.00;;;4.70;;
68593;SDS011;55563;52.416;13.548;2023-09-08T05:17:18;8.48;;;5.00;;
68593;SDS011;55563;52.416;13.548;2023-09-08T05:19:19;7.60;;;5.00;;
68593;SDS011;55563;52.416;13.548;2023-09-08T05:21:20;7.70;;;4.95;;
68593;SDS011;55563;52.416;13.548;2023-09-08T05:23:21;6.80;;;4.65;;
68593;SDS011;55563;52.416;13.548;2023-09-08T05:25:22;7.55;;;5.05;;
68593;SDS011;55563;52.416;13.548;2023-09-08T05:27:23;7.80;;;5.10;;
68593;SDS011;55563;52.416;13.548;2023-09-08T05:29:23;8.02;;;5.47;;
68593;SDS011;55563;52.416;13.548;2023-09-08T05:31:25;7.35;;;5.35;;
68593;SDS011;55563;52.416;13.548;2023-09-08T05:33:26;5.97;;;4.63;;
68593;SDS011;55563;52.416;13.548;2023-09-08T05:35:28;6.40;;;4.82;;
68593;SDS011;55563;52.416;13.548;2023-09-08T05:37:29;6.55;;;4.93;;
68593;SDS011;55563;52.416;13.548;2023-09-08T05:39:30;8.48;;;5.30;;
68593;SDS011;55563;52.416;13.548;2023-09-08T05:41:31;7.07;;;4.90;;
68593;SDS011;55563;52.416;13.548;2023-09-08T05:43:32;6.97;;;4.60;;
68593;SDS011;55563;52.416;13.548;2023-09-08T05:45:33;7.35;;;5.22;;
68593;SDS011;55563;52.416;13.548;2023-09-08T05:47:34;6.45;;;4.90;;
68593;SDS011;55563;52.416;13.548;2023-09-08T05:49:36;9.60;;;6.47;;
68593;SDS011;55563;52.416;13.548;2023-09-08T05:51:37;8.77;;;6.00;;
68593;SDS011;55563;52.416;13.548;2023-09-08T05:53:38;6.60;;;5.20;;
68593;SDS011;55563;52.416;13.548;2023-09-08T05:55:41;6.70;;;4.50;;
68593;SDS011;55563;52.416;13.548;2023-09-08T05:57:41;6.18;;;4.45;;
68593;SDS011;55563;52.416;13.548;2023-09-08T05:59:42;6.68;;;4.63;;
68593;SDS011;55563;52.416;13.548;2023-09-08T06:01:42;7.20;;;4.80;;
68593;SDS011;55563;52.416;13.548;2023-09-08T06:03:44;7.22;;;5.10;;
68593;SDS011;55563;52.416;13.548;2023-09-08T06:05:47;7.55;;;5.30;;
68593;SDS011;55563;52.416;13.548;2023-09-08T06:07:47;6.05;;;4.60;;
68593;SDS011;55563;52.416;13.548;2023-09-08T06:09:49;6.72;;;4.80;;
68593;SDS011;55563;52.416;13.548;2023-09-08T06:11:50;6.07;;;4.60;;
68593;SDS011;55563;52.416;13.548;2023-09-08T06:13:52;5.30;;;3.80;;
68593;SDS011;55563;52.416;13.548;2023-09-08T06:15:56;6.18;;;4.43;;
68593;SDS011;55563;52.416;13.548;2023-09-08T06:17:57;5.93;;;4.50;;
68593;SDS011;55563;52.416;13.548;2023-09-08T06:19:58;6.53;;;4.82;;
68593;SDS011;55563;52.416;13.548;2023-09-08T06:21:58;5.55;;;4.15;;
68593;SDS011;55563;52.416;13.548;2023-09-08T06:23:59;5.57;;;4.50;;
68593;SDS011;55563;52.416;13.548;2023-09-08T06:26:00;7.40;;;4.57;;
68593;SDS011;55563;52.416;13.548;2023-09-08T06:28:04;6.63;;;4.35;;
68593;SDS011;55563;52.416;13.548;2023-09-08T06:30:06;6.07;;;4.53;;
68593;SDS011;55563;52.416;13.548;2023-09-08T06:32:08;5.70;;;3.85;;
68593;SDS011;55563;52.416;13.548;2023-09-08T06:34:09;5.95;;;4.18;;
68593;SDS011;55563;52.416;13.548;2023-09-08T06:36:10;5.85;;;4.40;;
68593;SDS011;55563;52.416;13.548;2023-09-08T06:38:11;5.72;;;4.30;;
68593;SDS011;55563;52.416;13.548;2023-09-08T06:40:12;6.93;;;4.05;;
68593;SDS011;55563;52.416;13.548;2023-09-08T06:42:13;5.57;;;4.10;;
68593;SDS011;55563;52.416;13.548;2023-09-08T06:44:22;4.18;;;3.10;;
68593;SDS011;55563;52.416;13.548;2023-09-08T06:46:23;5.97;;;3.85;;
68593;SDS011;55563;52.416;13.548;2023-09-08T06:48:23;5.65;;;3.90;;
68593;SDS011;55563;52.416;13.548;2023-09-08T06:50:24;5.30;;;3.72;;
68593;SDS011;55563;52.416;13.548;2023-09-08T06:52:25;5.70;;;4.40;;
68593;SDS011;55563;52.416;13.548;2023-09-08T06:54:26;5.20;;;3.80;;
68593;SDS011;55563;52.416;13.548;2023-09-08T06:58:27;5.60;;;4.10;;
68593;SDS011;55563;52.416;13.548;2023-09-08T07:00:28;6.80;;;4.10;;
68593;SDS011;55563;52.416;13.548;2023-09-08T07:04:30;5.53;;;4.10;;
68593;SDS011;55563;52.416;13.548;2023-09-08T07:06:31;5.55;;;3.90;;
68593;SDS011;55563;52.416;13.548;2023-09-08T07:08:33;5.20;;;3.90;;
68593;SDS011;55563;52.416;13.548;2023-09-08T07:12:34;5.32;;;4.10;;
68593;SDS011;55563;52.416;13.548;2023-09-08T07:14:35;5.90;;;4.20;;
68593;SDS011;55563;52.416;13.548;2023-09-08T07:18:36;6.30;;;4.10;;
68593;SDS011;55563;52.416;13.548;2023-09-08T07:20:40;6.25;;;4.13;;
68593;SDS011;55563;52.416;13.548;2023-09-08T07:24:43;5.15;;;3.90;;
68593;SDS011;55563;52.416;13.548;2023-09-08T07:26:44;4.97;;;3.67;;
68593;SDS011;55563;52.416;13.548;2023-09-08T07:30:48;4.60;;;3.80;;
68593;SDS011;55563;52.416;13.548;2023-09-08T07:32:50;6.82;;;3.90;;
68593;SDS011;55563;52.416;13.548;2023-09-08T07:36:56;5.93;;;3.90;;
68593;SDS011;55563;52.416;13.548;2023-09-08T07:40:57;4.72;;;3.53;;
68593;SDS011;55563;52.416;13.548;2023-09-08T07:43:00;6.32;;;3.80;;
68593;SDS011;55563;52.416;13.548;2023-09-08T07:47:01;5.15;;;3.63;;
68593;SDS011;55563;52.416;13.548;2023-09-08T07:51:03;5.70;;;2.60;;
68593;SDS011;55563;52.416;13.548;2023-09-08T07:55:04;4.55;;;3.50;;
68593;SDS011;55563;52.416;13.548;2023-09-08T07:59:06;4.65;;;3.58;;
68593;SDS011;55563;52.416;13.548;2023-09-08T08:03:07;4.88;;;3.70;;
68593;SDS011;55563;52.416;13.548;2023-09-08T08:07:09;4.80;;;3.55;;
68593;SDS011;55563;52.416;13.548;2023-09-08T08:11:12;5.50;;;3.55;;
68593;SDS011;55563;52.416;13.548;2023-09-08T08:13:13;4.07;;;2.80;;
68593;SDS011;55563;52.416;13.548;2023-09-08T08:17:15;4.88;;;4.00;;
68593;SDS011;55563;52.416;13.548;2023-09-08T08:19:17;4.80;;;3.58;;
68593;SDS011;55563;52.416;13.548;2023-09-08T08:23:19;4.93;;;4.15;;
68593;SDS011;55563;52.416;13.548;2023-09-08T08:27:20;4.40;;;3.30;;
68593;SDS011;55563;52.416;13.548;2023-09-08T08:31:21;4.97;;;3.35;;
68593;SDS011;55563;52.416;13.548;2023-09-08T08:33:24;4.18;;;2.65;;
68593;SDS011;55563;52.416;13.548;2023-09-08T08:35:26;4.88;;;3.53;;
68593;SDS011;55563;52.416;13.548;2023-09-08T08:37:26;4.95;;;3.95;;
68593;SDS011;55563;52.416;13.548;2023-09-08T08:39:28;6.18;;;4.20;;
68593;SDS011;55563;52.416;13.548;2023-09-08T08:41:28;5.97;;;3.63;;
68593;SDS011;55563;52.416;13.548;2023-09-08T08:45:30;4.40;;;3.38;;
68593;SDS011;55563;52.416;13.548;2023-09-08T08:47:32;4.53;;;3.40;;
68593;SDS011;55563;52.416;13.548;2023-09-08T08:49:34;4.68;;;3.03;;
68593;SDS011;55563;52.416;13.548;2023-09-08T08:51:35;4.45;;;3.20;;
68593;SDS011;55563;52.416;13.548;2023-09-08T08:53:36;4.43;;;3.20;;
68593;SDS011;55563;52.416;13.548;2023-09-08T08:55:39;4.10;;;3.08;;
68593;SDS011;55563;52.416;13.548;2023-09-08T08:57:41;5.53;;;3.10;;
68593;SDS011;55563;52.416;13.548;2023-09-08T08:59:42;3.95;;;3.17;;
68593;SDS011;55563;52.416;13.548;2023-09-08T09:01:43;4.70;;;3.08;;
68593;SDS011;55563;52.416;13.548;2023-09-08T09:03:44;3.95;;;3.05;;
68593;SDS011;55563;52.416;13.548;2023-09-08T09:05:49;4.32;;;3.40;;
68593;SDS011;55563;52.416;13.548;2023-09-08T09:07:50;4.25;;;2.80;;
68593;SDS011;55563;52.416;13.548;2023-09-08T09:09:51;4.28;;;3.17;;
68593;SDS011;55563;52.416;13.548;2023-09-08T09:11:59;4.20;;;3.30;;
68593;SDS011;55563;52.416;13.548;2023-09-08T09:14:02;4.18;;;3.10;;
68593;SDS011;55563;52.416;13.548;2023-09-08T09:16:07;4.20;;;3.00;;
68593;SDS011;55563;52.416;13.548;2023-09-08T09:18:10;4.55;;;2.92;;
68593;SDS011;55563;52.416;13.548;2023-09-08T09:20:13;3.75;;;3.10;;
68593;SDS011;55563;52.416;13.548;2023-09-08T09:22:20;5.45;;;3.20;;
68593;SDS011;55563;52.416;13.548;2023-09-08T09:24:38;3.85;;;2.65;;
68593;SDS011;55563;52.416;13.548;2023-09-08T09:26:43;3.97;;;3.08;;
68593;SDS011;55563;52.416;13.548;2023-09-08T09:28:48;4.18;;;3.17;;
68593;SDS011;55563;52.416;13.548;2023-09-08T09:30:50;4.60;;;3.28;;
68593;SDS011;55563;52.416;13.548;2023-09-08T09:33:00;4.18;;;3.03;;
68593;SDS011;55563;52.416;13.548;2023-09-08T09:35:02;4.00;;;3.15;;
68593;SDS011;55563;52.416;13.548;2023-09-08T09:37:04;3.78;;;2.90;;
68593;SDS011;55563;52.416;13.548;2023-09-08T09:39:05;3.83;;;3.05;;
68593;SDS011;55563;52.416;13.548;2023-09-08T09:41:06;3.80;;;2.83;;
68593;SDS011;55563;52.416;13.548;2023-09-08T09:43:07;3.20;;;2.75;;
68593;SDS011;55563;52.416;13.548;2023-09-08T09:45:09;4.05;;;3.05;;
68593;SDS011;55563;52.416;13.548;2023-09-08T09:47:09;3.40;;;2.92;;
68593;SDS011;55563;52.416;13.548;2023-09-08T09:49:12;4.20;;;2.90;;
68593;SDS011;55563;52.416;13.548;2023-09-08T09:51:15;2.97;;;2.53;;
68593;SDS011;55563;52.416;13.548;2023-09-08T09:53:19;4.05;;;2.80;;
68593;SDS011;55563;52.416;13.548;2023-09-08T09:55:20;3.65;;;3.00;;
68593;SDS011;55563;52.416;13.548;2023-09-08T09:57:22;4.32;;;3.05;;
68593;SDS011;55563;52.416;13.548;2023-09-08T09:59:23;4.03;;;2.72;;
68593;SDS011;55563;52.416;13.548;2023-09-08T10:01:24;3.67;;;2.75;;
68593;SDS011;55563;52.416;13.548;2023-09-08T10:03:25;3.42;;;3.00;;
68593;SDS011;55563;52.416;13.548;2023-09-08T10:05:27;3.80;;;2.80;;
68593;SDS011;55563;52.416;13.548;2023-09-08T10:07:28;4.00;;;3.22;;
68593;SDS011;55563;52.416;13.548;2023-09-08T10:09:29;3.88;;;3.22;;
68593;SDS011;55563;52.416;13.548;2023-09-08T10:11:30;4.13;;;3.13;;
68593;SDS011;55563;52.416;13.548;2023-09-08T10:13:39;3.78;;;3.00;;
68593;SDS011;55563;52.416;13.548;2023-09-08T10:15:42;3.55;;;2.97;;
68593;SDS011;55563;52.416;13.548;2023-09-08T10:17:44;3.35;;;2.67;;
68593;SDS011;55563;52.416;13.548;2023-09-08T10:19:47;3.88;;;3.00;;
68593;SDS011;55563;52.416;13.548;2023-09-08T10:21:54;3.50;;;2.70;;
68593;SDS011;55563;52.416;13.548;2023-09-08T10:24:03;4.43;;;2.90;;
68593;SDS011;55563;52.416;13.548;2023-09-08T10:26:09;2.88;;;1.98;;
68593;SDS011;55563;52.416;13.548;2023-09-08T10:28:12;3.30;;;2.63;;
68593;SDS011;55563;52.416;13.548;2023-09-08T10:30:13;3.22;;;2.60;;
68593;SDS011;55563;52.416;13.548;2023-09-08T10:32:16;3.55;;;2.80;;
68593;SDS011;55563;52.416;13.548;2023-09-08T10:34:18;3.72;;;2.80;;
68593;SDS011;55563;52.416;13.548;2023-09-08T10:36:20;3.45;;;2.95;;
68593;SDS011;55563;52.416;13.548;2023-09-08T10:38:29;3.13;;;2.47;;
68593;SDS011;55563;52.416;13.548;2023-09-08T10:40:32;3.25;;;2.78;;
68593;SDS011;55563;52.416;13.548;2023-09-08T10:42:33;3.20;;;2.72;;
68593;SDS011;55563;52.416;13.548;2023-09-08T10:44:34;3.40;;;3.10;;
68593;SDS011;55563;52.416;13.548;2023-09-08T10:46:35;2.95;;;2.50;;
68593;SDS011;55563;52.416;13.548;2023-09-08T10:48:40;3.63;;;2.85;;
68593;SDS011;55563;52.416;13.548;2023-09-08T10:50:43;3.78;;;3.03;;
68593;SDS011;55563;52.416;13.548;2023-09-08T10:52:44;2.97;;;2.63;;
68593;SDS011;55563;52.416;13.548;2023-09-08T10:54:49;3.42;;;2.90;;
68593;SDS011;55563;52.416;13.548;2023-09-08T10:56:55;3.20;;;2.53;;
68593;SDS011;55563;52.416;13.548;2023-09-08T10:58:58;1.98;;;1.75;;
68593;SDS011;55563;52.416;13.548;2023-09-08T11:01:00;3.47;;;2.75;;
68593;SDS011;55563;52.416;13.548;2023-09-08T11:03:01;3.22;;;2.70;;
68593;SDS011;55563;52.416;13.548;2023-09-08T11:05:06;3.35;;;2.55;;
68593;SDS011;55563;52.416;13.548;2023-09-08T11:07:09;4.03;;;3.10;;
68593;SDS011;55563;52.416;13.548;2023-09-08T11:09:10;3.25;;;2.45;;
68593;SDS011;55563;52.416;13.548;2023-09-08T11:11:11;3.22;;;2.58;;
68593;SDS011;55563;52.416;13.548;2023-09-08T11:13:12;3.08;;;2.45;;
68593;SDS011;55563;52.416;13.548;2023-09-08T11:15:15;5.97;;;2.60;;
68593;SDS011;55563;52.416;13.548;2023-09-08T11:17:15;3.22;;;2.53;;
68593;SDS011;55563;52.416;13.548;2023-09-08T11:19:16;2.80;;;2.45;;
68593;SDS011;55563;52.416;13.548;2023-09-08T11:21:17;2.80;;;2.35;;
68593;SDS011;55563;52.416;13.548;2023-09-08T11:23:18;3.75;;;3.03;;
68593;SDS011;55563;52.416;13.548;2023-09-08T11:25:19;3.33;;;2.70;;
68593;SDS011;55563;52.416;13.548;2023-09-08T11:27:53;3.17;;;2.63;;
68593;SDS011;55563;52.416;13.548;2023-09-08T11:29:54;2.90;;;2.60;;
68593;SDS011;55563;52.416;13.548;2023-09-08T11:31:56;3.92;;;2.80;;
68593;SDS011;55563;52.416;13.548;2023-09-08T11:33:58;3.20;;;2.58;;
68593;SDS011;55563;52.416;13.548;2023-09-08T11:36:00;2.60;;;2.40;;
68593;SDS011;55563;52.416;13.548;2023-09-08T11:38:00;3.97;;;2.83;;
68593;SDS011;55563;52.416;13.548;2023-09-08T11:40:02;3.33;;;2.70;;
68593;SDS011;55563;52.416;13.548;2023-09-08T11:42:07;3.08;;;2.50;;
68593;SDS011;55563;52.416;13.548;2023-09-08T11:44:08;3.38;;;2.60;;
68593;SDS011;55563;52.416;13.548;2023-09-08T11:46:10;3.10;;;2.75;;
68593;SDS011;55563;52.416;13.548;2023-09-08T11:48:11;3.13;;;2.58;;
68593;SDS011;55563;52.416;13.548;2023-09-08T11:50:12;2.58;;;2.38;;
68593;SDS011;55563;52.416;13.548;2023-09-08T11:52:16;2.60;;;2.40;;
68593;SDS011;55563;52.416;13.548;2023-09-08T11:54:16;4.00;;;2.30;;
68593;SDS011;55563;52.416;13.548;2023-09-08T11:56:18;3.50;;;2.60;;
68593;SDS011;55563;52.416;13.548;2023-09-08T11:58:19;3.70;;;2.70;;
68593;SDS011;55563;52.416;13.548;2023-09-08T12:00:20;3.30;;;2.70;;
68593;SDS011;55563;52.416;13.548;2023-09-08T12:02:23;3.45;;;2.72;;
68593;SDS011;55563;52.416;13.548;2023-09-08T12:04:25;3.05;;;2.45;;
68593;SDS011;55563;52.416;13.548;2023-09-08T12:06:26;4.00;;;2.65;;
68593;SDS011;55563;52.416;13.548;2023-09-08T12:08:28;3.13;;;2.65;;
68593;SDS011;55563;52.416;13.548;2023-09-08T12:10:29;4.05;;;2.60;;
68593;SDS011;55563;52.416;13.548;2023-09-08T12:12:30;3.03;;;2.45;;
68593;SDS011;55563;52.416;13.548;2023-09-08T12:14:39;2.65;;;2.25;;
68593;SDS011;55563;52.416;13.548;2023-09-08T12:16:42;3.17;;;2.47;;
68593;SDS011;55563;52.416;13.548;2023-09-08T12:18:42;3.05;;;2.45;;
68593;SDS011;55563;52.416;13.548;2023-09-08T12:20:45;3.30;;;2.53;;
68593;SDS011;55563;52.416;13.548;2023-09-08T12:22:47;3.50;;;3.03;;
68593;SDS011;55563;52.416;13.548;2023-09-08T12:27:05;3.33;;;2.67;;
68593;SDS011;55563;52.416;13.548;2023-09-08T12:29:12;2.67;;;2.38;;
68593;SDS011;55563;52.416;13.548;2023-09-08T12:31:13;6.97;;;3.20;;
68593;SDS011;55563;52.416;13.548;2023-09-08T12:33:15;3.25;;;2.78;;
68593;SDS011;55563;52.416;13.548;2023-09-08T12:35:21;3.55;;;2.47;;
68593;SDS011;55563;52.416;13.548;2023-09-08T12:37:24;3.67;;;2.50;;
68593;SDS011;55563;52.416;13.548;2023-09-08T12:39:27;2.78;;;2.45;;
68593;SDS011;55563;52.416;13.548;2023-09-08T12:41:29;5.47;;;2.83;;
68593;SDS011;55563;52.416;13.548;2023-09-08T12:43:29;3.13;;;2.53;;
68593;SDS011;55563;52.416;13.548;2023-09-08T12:45:30;4.95;;;2.42;;
68593;SDS011;55563;52.416;13.548;2023-09-08T12:47:32;3.97;;;2.53;;
68593;SDS011;55563;52.416;13.548;2023-09-08T12:49:32;3.25;;;2.65;;
68593;SDS011;55563;52.416;13.548;2023-09-08T12:51:33;2.80;;;2.53;;
68593;SDS011;55563;52.416;13.548;2023-09-08T12:53:34;3.40;;;2.63;;
68593;SDS011;55563;52.416;13.548;2023-09-08T12:55:35;3.72;;;2.63;;
68593;SDS011;55563;52.416;13.548;2023-09-08T12:57:36;2.63;;;2.40;;
68593;SDS011;55563;52.416;13.548;2023-09-08T12:59:37;3.17;;;2.85;;
68593;SDS011;55563;52.416;13.548;2023-09-08T13:01:37;2.92;;;2.13;;
68593;SDS011;55563;52.416;13.548;2023-09-08T13:03:38;2.65;;;2.45;;
68593;SDS011;55563;52.416;13.548;2023-09-08T13:05:39;3.13;;;2.55;;
68593;SDS011;55563;52.416;13.548;2023-09-08T13:07:40;2.88;;;2.20;;
68593;SDS011;55563;52.416;13.548;2023-09-08T13:09:40;3.33;;;2.38;;
68593;SDS011;55563;52.416;13.548;2023-09-08T13:11:42;2.80;;;2.30;;
68593;SDS011;55563;52.416;13.548;2023-09-08T13:13:43;3.10;;;2.40;;
68593;SDS011;55563;52.416;13.548;2023-09-08T13:15:43;3.22;;;2.70;;